sensor_id;sensor_type;location;lat;lon;timestamp;P1;durP1;ratioP1;P2;durP2;ratioP2
22650;SDS011;11492;42.646;23.400;2023-08-06T00:01:24;4.53;;;2.65;;
22650;SDS011;11492;42.646;23.400;2023-08-06T00:03:50;5.70;;;2.47;;
22650;SDS011;11492;42.646;23.400;2023-08-06T00:06:16;6.20;;;3.30;;
22650;SDS011;11492;42.646;23.400;2023-08-06T00:08:41;7.03;;;3.03;;
22650;SDS011;11492;42.646;23.400;2023-08-06T00:11:07;12.73;;;4.13;;
22650;SDS011;11492;42.646;23.400;2023-08-06T00:13:32;8.43;;;3.53;;
22650;SDS011;11492;42.646;23.400;2023-08-06T00:16:11;9.00;;;3.22;;
22650;SDS011;11492;42.646;23.400;2023-08-06T00:18:37;8.60;;;3.38;;
22650;SDS011;11492;42.646;23.400;2023-08-06T00:21:02;10.10;;;3.60;;
22650;SDS011;11492;42.646;23.400;2023-08-06T00:23:28;7.85;;;3.80;;
22650;SDS011;11492;42.646;23.400;2023-08-06T00:25:53;8.45;;;3.45;;
22650;SDS011;11492;42.646;23.400;2023-08-06T00:28:19;7.88;;;4.05;;
22650;SDS011;11492;42.646;23.400;2023-08-06T00:30:44;8.57;;;3.38;;
22650;SDS011;11492;42.646;23.400;2023-08-06T00:33:09;9.43;;;3.58;;
22650;SDS011;11492;42.646;23.400;2023-08-06T00:35:35;6.03;;;3.20;;
22650;SDS011;11492;42.646;23.400;2023-08-06T00:38:00;6.22;;;3.35;;
22650;SDS011;11492;42.646;23.400;2023-08-06T00:40:25;6.95;;;3.47;;
22650;SDS011;11492;42.646;23.400;2023-08-06T00:42:53;7.10;;;3.58;;
22650;SDS011;11492;42.646;23.400;2023-08-06T00:45:18;5.95;;;3.40;;
22650;SDS011;11492;42.646;23.400;2023-08-06T00:47:44;6.85;;;3.70;;
22650;SDS011;11492;42.646;23.400;2023-08-06T00:50:11;5.97;;;3.58;;
22650;SDS011;11492;42.646;23.400;2023-08-06T00:52:36;5.93;;;3.83;;
22650;SDS011;11492;42.646;23.400;2023-08-06T00:55:02;11.50;;;4.18;;
22650;SDS011;11492;42.646;23.400;2023-08-06T00:57:28;8.13;;;4.07;;
22650;SDS011;11492;42.646;23.400;2023-08-06T00:59:54;5.78;;;3.90;;
22650;SDS011;11492;42.646;23.400;2023-08-06T01:02:20;7.78;;;4.20;;
22650;SDS011;11492;42.646;23.400;2023-08-06T01:04:45;8.60;;;4.15;;
22650;SDS011;11492;42.646;23.400;2023-08-06T01:13:02;7.47;;;4.40;;
22650;SDS011;11492;42.646;23.400;2023-08-06T01:15:32;10.05;;;4.30;;
22650;SDS011;11492;42.646;23.400;2023-08-06T01:18:22;11.20;;;4.03;;
22650;SDS011;11492;42.646;23.400;2023-08-06T01:20:48;9.35;;;4.57;;
22650;SDS011;11492;42.646;23.400;2023-08-06T01:23:15;6.45;;;4.03;;
22650;SDS011;11492;42.646;23.400;2023-08-06T01:31:31;8.15;;;4.20;;
22650;SDS011;11492;42.646;23.400;2023-08-06T01:34:01;7.47;;;4.03;;
22650;SDS011;11492;42.646;23.400;2023-08-06T01:36:29;7.80;;;4.47;;
22650;SDS011;11492;42.646;23.400;2023-08-06T01:38:55;5.65;;;4.50;;
22650;SDS011;11492;42.646;23.400;2023-08-06T01:41:22;7.00;;;4.50;;
22650;SDS011;11492;42.646;23.400;2023-08-06T01:43:48;5.82;;;4.15;;
22650;SDS011;11492;42.646;23.400;2023-08-06T01:46:13;13.38;;;4.90;;
22650;SDS011;11492;42.646;23.400;2023-08-06T01:48:38;9.32;;;4.90;;
22650;SDS011;11492;42.646;23.400;2023-08-06T01:51:04;5.57;;;4.22;;
22650;SDS011;11492;42.646;23.400;2023-08-06T01:53:30;9.68;;;4.13;;
22650;SDS011;11492;42.646;23.400;2023-08-06T01:55:56;7.93;;;3.92;;
22650;SDS011;11492;42.646;23.400;2023-08-06T01:58:22;10.55;;;3.85;;
22650;SDS011;11492;42.646;23.400;2023-08-06T02:00:48;8.18;;;4.50;;
22650;SDS011;11492;42.646;23.400;2023-08-06T02:03:13;9.57;;;4.10;;
22650;SDS011;11492;42.646;23.400;2023-08-06T02:05:39;8.73;;;4.15;;
22650;SDS011;11492;42.646;23.400;2023-08-06T02:08:05;8.13;;;4.22;;
22650;SDS011;11492;42.646;23.400;2023-08-06T02:10:30;12.18;;;4.38;;
22650;SDS011;11492;42.646;23.400;2023-08-06T02:12:55;11.18;;;4.75;;
22650;SDS011;11492;42.646;23.400;2023-08-06T02:15:21;9.00;;;4.47;;
22650;SDS011;11492;42.646;23.400;2023-08-06T02:17:46;7.30;;;4.43;;
22650;SDS011;11492;42.646;23.400;2023-08-06T02:20:12;10.88;;;4.13;;
22650;SDS011;11492;42.646;23.400;2023-08-06T02:22:37;6.50;;;4.72;;
22650;SDS011;11492;42.646;23.400;2023-08-06T02:25:02;4.88;;;3.75;;
22650;SDS011;11492;42.646;23.400;2023-08-06T02:27:28;6.80;;;4.30;;
22650;SDS011;11492;42.646;23.400;2023-08-06T02:29:53;8.82;;;5.07;;
22650;SDS011;11492;42.646;23.400;2023-08-06T02:32:19;16.77;;;5.22;;
22650;SDS011;11492;42.646;23.400;2023-08-06T02:34:44;8.65;;;4.70;;
22650;SDS011;11492;42.646;23.400;2023-08-06T02:37:10;8.60;;;5.10;;
22650;SDS011;11492;42.646;23.400;2023-08-06T02:39:35;9.07;;;4.45;;
22650;SDS011;11492;42.646;23.400;2023-08-06T02:42:04;8.68;;;4.22;;
22650;SDS011;11492;42.646;23.400;2023-08-06T02:44:30;9.02;;;4.55;;
22650;SDS011;11492;42.646;23.400;2023-08-06T02:46:56;8.35;;;3.65;;
22650;SDS011;11492;42.646;23.400;2023-08-06T02:49:21;6.72;;;3.80;;
22650;SDS011;11492;42.646;23.400;2023-08-06T02:51:47;10.75;;;4.90;;
22650;SDS011;11492;42.646;23.400;2023-08-06T02:54:12;9.70;;;4.30;;
22650;SDS011;11492;42.646;23.400;2023-08-06T02:56:37;6.85;;;4.00;;
22650;SDS011;11492;42.646;23.400;2023-08-06T02:59:03;6.78;;;4.45;;
22650;SDS011;11492;42.646;23.400;2023-08-06T03:01:29;11.23;;;4.18;;
22650;SDS011;11492;42.646;23.400;2023-08-06T03:03:54;5.53;;;3.88;;
22650;SDS011;11492;42.646;23.400;2023-08-06T03:06:20;13.10;;;4.43;;
22650;SDS011;11492;42.646;23.400;2023-08-06T03:08:45;7.35;;;3.72;;
22650;SDS011;11492;42.646;23.400;2023-08-06T03:11:11;7.97;;;4.00;;
22650;SDS011;11492;42.646;23.400;2023-08-06T03:13:36;10.13;;;4.82;;
22650;SDS011;11492;42.646;23.400;2023-08-06T03:16:01;7.03;;;3.88;;
22650;SDS011;11492;42.646;23.400;2023-08-06T03:18:27;12.20;;;5.07;;
22650;SDS011;11492;42.646;23.400;2023-08-06T03:20:53;11.30;;;4.40;;
22650;SDS011;11492;42.646;23.400;2023-08-06T03:23:18;6.78;;;3.85;;
22650;SDS011;11492;42.646;23.400;2023-08-06T03:25:44;7.65;;;4.22;;
22650;SDS011;11492;42.646;23.400;2023-08-06T03:28:10;6.10;;;4.55;;
22650;SDS011;11492;42.646;23.400;2023-08-06T03:30:35;6.43;;;4.03;;
22650;SDS011;11492;42.646;23.400;2023-08-06T03:33:01;9.40;;;4.40;;
22650;SDS011;11492;42.646;23.400;2023-08-06T03:35:27;5.45;;;4.00;;
22650;SDS011;11492;42.646;23.400;2023-08-06T03:37:52;8.23;;;4.90;;
22650;SDS011;11492;42.646;23.400;2023-08-06T03:40:17;8.20;;;4.63;;
22650;SDS011;11492;42.646;23.400;2023-08-06T03:42:43;30.02;;;8.45;;
22650;SDS011;11492;42.646;23.400;2023-08-06T03:45:08;12.68;;;5.43;;
22650;SDS011;11492;42.646;23.400;2023-08-06T03:47:34;9.15;;;4.93;;
22650;SDS011;11492;42.646;23.400;2023-08-06T03:49:59;8.88;;;5.32;;
22650;SDS011;11492;42.646;23.400;2023-08-06T03:52:25;9.85;;;5.43;;
22650;SDS011;11492;42.646;23.400;2023-08-06T03:54:50;9.85;;;5.68;;
22650;SDS011;11492;42.646;23.400;2023-08-06T03:57:16;14.18;;;4.55;;
22650;SDS011;11492;42.646;23.400;2023-08-06T03:59:41;11.98;;;4.88;;
22650;SDS011;11492;42.646;23.400;2023-08-06T04:02:07;17.60;;;4.32;;
22650;SDS011;11492;42.646;23.400;2023-08-06T04:04:32;8.80;;;4.03;;
22650;SDS011;11492;42.646;23.400;2023-08-06T04:06:58;7.85;;;4.00;;
22650;SDS011;11492;42.646;23.400;2023-08-06T04:09:23;12.85;;;3.97;;
22650;SDS011;11492;42.646;23.400;2023-08-06T04:11:48;7.97;;;3.95;;
22650;SDS011;11492;42.646;23.400;2023-08-06T04:14:14;6.00;;;3.83;;
22650;SDS011;11492;42.646;23.400;2023-08-06T04:16:39;12.60;;;3.10;;
22650;SDS011;11492;42.646;23.400;2023-08-06T04:19:04;15.38;;;4.07;;
22650;SDS011;11492;42.646;23.400;2023-08-06T04:21:30;12.75;;;4.43;;
22650;SDS011;11492;42.646;23.400;2023-08-06T04:23:56;9.05;;;4.50;;
22650;SDS011;11492;42.646;23.400;2023-08-06T04:26:21;7.25;;;3.47;;
22650;SDS011;11492;42.646;23.400;2023-08-06T04:28:47;9.27;;;3.75;;
22650;SDS011;11492;42.646;23.400;2023-08-06T04:31:13;8.18;;;3.67;;
22650;SDS011;11492;42.646;23.400;2023-08-06T04:33:39;8.30;;;3.80;;
22650;SDS011;11492;42.646;23.400;2023-08-06T04:36:04;8.77;;;4.13;;
22650;SDS011;11492;42.646;23.400;2023-08-06T04:38:30;8.43;;;4.00;;
22650;SDS011;11492;42.646;23.400;2023-08-06T04:40:55;7.20;;;3.83;;
22650;SDS011;11492;42.646;23.400;2023-08-06T04:43:21;8.05;;;3.70;;
22650;SDS011;11492;42.646;23.400;2023-08-06T04:45:47;10.50;;;3.95;;
22650;SDS011;11492;42.646;23.400;2023-08-06T04:48:16;8.60;;;4.10;;
22650;SDS011;11492;42.646;23.400;2023-08-06T04:50:45;16.38;;;4.05;;
22650;SDS011;11492;42.646;23.400;2023-08-06T04:53:11;8.75;;;3.97;;
22650;SDS011;11492;42.646;23.400;2023-08-06T04:55:37;9.60;;;4.70;;
22650;SDS011;11492;42.646;23.400;2023-08-06T04:58:02;7.88;;;4.47;;
22650;SDS011;11492;42.646;23.400;2023-08-06T05:00:28;11.32;;;4.38;;
22650;SDS011;11492;42.646;23.400;2023-08-06T05:02:53;8.85;;;4.40;;
22650;SDS011;11492;42.646;23.400;2023-08-06T05:05:18;12.63;;;4.55;;
22650;SDS011;11492;42.646;23.400;2023-08-06T05:07:45;10.77;;;3.85;;
22650;SDS011;11492;42.646;23.400;2023-08-06T05:10:13;7.93;;;4.18;;
22650;SDS011;11492;42.646;23.400;2023-08-06T05:12:38;6.80;;;4.00;;
22650;SDS011;11492;42.646;23.400;2023-08-06T05:15:04;7.45;;;3.80;;
22650;SDS011;11492;42.646;23.400;2023-08-06T05:17:30;8.13;;;3.58;;
22650;SDS011;11492;42.646;23.400;2023-08-06T05:19:55;5.28;;;3.58;;
22650;SDS011;11492;42.646;23.400;2023-08-06T05:22:21;5.18;;;3.40;;
22650;SDS011;11492;42.646;23.400;2023-08-06T05:24:46;5.70;;;3.88;;
22650;SDS011;11492;42.646;23.400;2023-08-06T05:27:11;6.35;;;4.57;;
22650;SDS011;11492;42.646;23.400;2023-08-06T05:29:37;7.95;;;4.70;;
22650;SDS011;11492;42.646;23.400;2023-08-06T05:32:02;9.13;;;5.35;;
22650;SDS011;11492;42.646;23.400;2023-08-06T05:34:28;6.45;;;4.55;;
22650;SDS011;11492;42.646;23.400;2023-08-06T05:36:54;8.07;;;4.60;;
22650;SDS011;11492;42.646;23.400;2023-08-06T05:39:19;7.50;;;4.22;;
22650;SDS011;11492;42.646;23.400;2023-08-06T05:41:45;8.63;;;4.75;;
22650;SDS011;11492;42.646;23.400;2023-08-06T05:44:10;6.15;;;4.25;;
22650;SDS011;11492;42.646;23.400;2023-08-06T05:46:36;7.30;;;4.75;;
22650;SDS011;11492;42.646;23.400;2023-08-06T05:49:01;8.13;;;4.97;;
22650;SDS011;11492;42.646;23.400;2023-08-06T05:51:26;5.88;;;4.72;;
22650;SDS011;11492;42.646;23.400;2023-08-06T05:53:52;11.05;;;6.38;;
22650;SDS011;11492;42.646;23.400;2023-08-06T05:56:17;8.80;;;6.30;;
22650;SDS011;11492;42.646;23.400;2023-08-06T05:58:43;11.00;;;7.20;;
22650;SDS011;11492;42.646;23.400;2023-08-06T06:01:08;15.93;;;7.78;;
22650;SDS011;11492;42.646;23.400;2023-08-06T06:03:33;13.20;;;8.70;;
22650;SDS011;11492;42.646;23.400;2023-08-06T06:06:00;14.77;;;10.27;;
22650;SDS011;11492;42.646;23.400;2023-08-06T06:08:26;13.73;;;9.00;;
22650;SDS011;11492;42.646;23.400;2023-08-06T06:10:52;12.73;;;7.05;;
22650;SDS011;11492;42.646;23.400;2023-08-06T06:13:17;11.50;;;6.38;;
22650;SDS011;11492;42.646;23.400;2023-08-06T06:15:43;8.63;;;5.70;;
22650;SDS011;11492;42.646;23.400;2023-08-06T06:18:08;6.47;;;4.80;;
22650;SDS011;11492;42.646;23.400;2023-08-06T06:20:33;10.48;;;4.90;;
22650;SDS011;11492;42.646;23.400;2023-08-06T06:22:59;7.50;;;4.18;;
22650;SDS011;11492;42.646;23.400;2023-08-06T06:25:24;5.38;;;3.70;;
22650;SDS011;11492;42.646;23.400;2023-08-06T06:27:50;8.23;;;3.80;;
22650;SDS011;11492;42.646;23.400;2023-08-06T06:30:15;4.07;;;2.85;;
22650;SDS011;11492;42.646;23.400;2023-08-06T06:32:41;4.57;;;2.50;;
22650;SDS011;11492;42.646;23.400;2023-08-06T06:35:06;4.65;;;2.58;;
22650;SDS011;11492;42.646;23.400;2023-08-06T06:37:32;4.78;;;2.58;;
22650;SDS011;11492;42.646;23.400;2023-08-06T06:39:57;4.93;;;2.67;;
22650;SDS011;11492;42.646;23.400;2023-08-06T06:42:23;3.08;;;2.28;;
22650;SDS011;11492;42.646;23.400;2023-08-06T06:44:48;5.05;;;2.58;;
22650;SDS011;11492;42.646;23.400;2023-08-06T06:47:14;6.32;;;2.80;;
22650;SDS011;11492;42.646;23.400;2023-08-06T06:49:39;4.00;;;2.60;;
22650;SDS011;11492;42.646;23.400;2023-08-06T06:52:05;6.75;;;2.58;;
22650;SDS011;11492;42.646;23.400;2023-08-06T06:54:30;7.32;;;2.67;;
22650;SDS011;11492;42.646;23.400;2023-08-06T06:56:56;7.18;;;2.72;;
22650;SDS011;11492;42.646;23.400;2023-08-06T06:59:22;7.55;;;2.42;;
22650;SDS011;11492;42.646;23.400;2023-08-06T07:01:47;3.30;;;2.60;;
22650;SDS011;11492;42.646;23.400;2023-08-06T07:04:12;3.15;;;2.50;;
22650;SDS011;11492;42.646;23.400;2023-08-06T07:06:38;5.35;;;2.63;;
22650;SDS011;11492;42.646;23.400;2023-08-06T07:09:03;5.38;;;3.60;;
22650;SDS011;11492;42.646;23.400;2023-08-06T07:11:28;5.55;;;2.70;;
22650;SDS011;11492;42.646;23.400;2023-08-06T07:13:57;5.13;;;3.08;;
22650;SDS011;11492;42.646;23.400;2023-08-06T07:16:24;5.30;;;3.33;;
22650;SDS011;11492;42.646;23.400;2023-08-06T07:18:51;6.68;;;3.30;;
22650;SDS011;11492;42.646;23.400;2023-08-06T07:21:17;5.97;;;3.75;;
22650;SDS011;11492;42.646;23.400;2023-08-06T07:23:43;6.65;;;3.50;;
22650;SDS011;11492;42.646;23.400;2023-08-06T07:26:08;4.93;;;3.42;;
22650;SDS011;11492;42.646;23.400;2023-08-06T07:28:34;5.25;;;3.10;;
22650;SDS011;11492;42.646;23.400;2023-08-06T07:31:00;5.60;;;3.35;;
22650;SDS011;11492;42.646;23.400;2023-08-06T07:33:25;4.22;;;3.10;;
22650;SDS011;11492;42.646;23.400;2023-08-06T07:35:50;7.95;;;3.15;;
22650;SDS011;11492;42.646;23.400;2023-08-06T07:38:16;6.18;;;3.38;;
22650;SDS011;11492;42.646;23.400;2023-08-06T07:40:41;5.50;;;3.22;;
22650;SDS011;11492;42.646;23.400;2023-08-06T07:43:07;3.47;;;2.88;;
22650;SDS011;11492;42.646;23.400;2023-08-06T07:45:35;4.38;;;2.80;;
22650;SDS011;11492;42.646;23.400;2023-08-06T07:48:01;9.40;;;2.90;;
22650;SDS011;11492;42.646;23.400;2023-08-06T07:50:27;4.15;;;3.03;;
22650;SDS011;11492;42.646;23.400;2023-08-06T07:52:53;5.07;;;2.45;;
22650;SDS011;11492;42.646;23.400;2023-08-06T07:55:18;7.80;;;2.70;;
22650;SDS011;11492;42.646;23.400;2023-08-06T07:57:44;5.20;;;2.70;;
22650;SDS011;11492;42.646;23.400;2023-08-06T08:00:09;8.93;;;2.70;;
22650;SDS011;11492;42.646;23.400;2023-08-06T08:02:35;3.85;;;2.47;;
22650;SDS011;11492;42.646;23.400;2023-08-06T08:05:00;4.13;;;2.25;;
22650;SDS011;11492;42.646;23.400;2023-08-06T08:07:26;5.60;;;2.67;;
22650;SDS011;11492;42.646;23.400;2023-08-06T08:09:54;4.65;;;2.55;;
22650;SDS011;11492;42.646;23.400;2023-08-06T08:12:19;3.95;;;2.40;;
22650;SDS011;11492;42.646;23.400;2023-08-06T08:14:44;3.33;;;2.30;;
22650;SDS011;11492;42.646;23.400;2023-08-06T08:17:10;5.80;;;2.47;;
22650;SDS011;11492;42.646;23.400;2023-08-06T08:19:37;9.98;;;2.40;;
22650;SDS011;11492;42.646;23.400;2023-08-06T08:22:02;5.45;;;2.35;;
22650;SDS011;11492;42.646;23.400;2023-08-06T08:24:28;5.13;;;2.88;;
22650;SDS011;11492;42.646;23.400;2023-08-06T08:26:55;8.32;;;2.20;;
22650;SDS011;11492;42.646;23.400;2023-08-06T08:29:21;4.13;;;2.50;;
22650;SDS011;11492;42.646;23.400;2023-08-06T08:31:48;6.15;;;2.50;;
22650;SDS011;11492;42.646;23.400;2023-08-06T08:34:18;2.60;;;2.17;;
22650;SDS011;11492;42.646;23.400;2023-08-06T08:36:43;5.82;;;2.40;;
22650;SDS011;11492;42.646;23.400;2023-08-06T08:39:12;4.25;;;2.20;;
22650;SDS011;11492;42.646;23.400;2023-08-06T08:41:37;4.80;;;2.47;;
22650;SDS011;11492;42.646;23.400;2023-08-06T08:44:04;5.72;;;2.60;;
22650;SDS011;11492;42.646;23.400;2023-08-06T08:46:34;4.82;;;2.42;;
22650;SDS011;11492;42.646;23.400;2023-08-06T08:49:01;4.43;;;2.80;;
22650;SDS011;11492;42.646;23.400;2023-08-06T08:51:27;3.13;;;2.55;;
22650;SDS011;11492;42.646;23.400;2023-08-06T08:53:53;3.45;;;2.35;;
22650;SDS011;11492;42.646;23.400;2023-08-06T08:56:22;3.58;;;2.58;;
22650;SDS011;11492;42.646;23.400;2023-08-06T08:58:49;5.05;;;2.47;;
22650;SDS011;11492;42.646;23.400;2023-08-06T09:01:15;6.68;;;2.80;;
22650;SDS011;11492;42.646;23.400;2023-08-06T09:03:41;5.07;;;2.72;;
22650;SDS011;11492;42.646;23.400;2023-08-06T09:06:08;5.65;;;2.85;;
22650;SDS011;11492;42.646;23.400;2023-08-06T09:08:37;6.38;;;2.50;;
22650;SDS011;11492;42.646;23.400;2023-08-06T09:11:07;3.50;;;2.53;;
22650;SDS011;11492;42.646;23.400;2023-08-06T09:13:35;5.57;;;2.45;;
22650;SDS011;11492;42.646;23.400;2023-08-06T09:16:02;3.63;;;2.30;;
22650;SDS011;11492;42.646;23.400;2023-08-06T09:18:29;3.30;;;2.40;;
22650;SDS011;11492;42.646;23.400;2023-08-06T09:20:55;4.43;;;2.78;;
22650;SDS011;11492;42.646;23.400;2023-08-06T09:23:27;7.38;;;2.65;;
22650;SDS011;11492;42.646;23.400;2023-08-06T09:25:54;4.55;;;2.53;;
22650;SDS011;11492;42.646;23.400;2023-08-06T09:28:20;4.68;;;2.40;;
22650;SDS011;11492;42.646;23.400;2023-08-06T09:30:46;5.20;;;2.25;;
22650;SDS011;11492;42.646;23.400;2023-08-06T09:33:14;4.55;;;2.70;;
22650;SDS011;11492;42.646;23.400;2023-08-06T09:35:43;8.88;;;2.70;;
22650;SDS011;11492;42.646;23.400;2023-08-06T09:38:10;2.92;;;2.20;;
22650;SDS011;11492;42.646;23.400;2023-08-06T09:40:37;5.97;;;2.50;;
22650;SDS011;11492;42.646;23.400;2023-08-06T09:43:03;4.20;;;2.53;;
22650;SDS011;11492;42.646;23.400;2023-08-06T09:45:35;5.07;;;2.42;;
22650;SDS011;11492;42.646;23.400;2023-08-06T09:50:35;5.38;;;2.60;;
22650;SDS011;11492;42.646;23.400;2023-08-06T09:53:02;5.22;;;2.35;;
22650;SDS011;11492;42.646;23.400;2023-08-06T09:55:29;5.22;;;2.60;;
22650;SDS011;11492;42.646;23.400;2023-08-06T09:57:55;3.85;;;2.10;;
22650;SDS011;11492;42.646;23.400;2023-08-06T10:00:21;2.60;;;1.90;;
22650;SDS011;11492;42.646;23.400;2023-08-06T10:02:48;2.35;;;1.88;;
22650;SDS011;11492;42.646;23.400;2023-08-06T10:05:16;4.80;;;2.05;;
22650;SDS011;11492;42.646;23.400;2023-08-06T10:07:42;7.78;;;2.08;;
22650;SDS011;11492;42.646;23.400;2023-08-06T10:10:10;3.85;;;2.10;;
22650;SDS011;11492;42.646;23.400;2023-08-06T10:12:37;3.28;;;1.80;;
22650;SDS011;11492;42.646;23.400;2023-08-06T10:15:08;4.22;;;1.90;;
22650;SDS011;11492;42.646;23.400;2023-08-06T10:17:36;2.40;;;1.92;;
22650;SDS011;11492;42.646;23.400;2023-08-06T10:20:05;2.92;;;1.88;;
22650;SDS011;11492;42.646;23.400;2023-08-06T10:22:33;2.80;;;1.73;;
22650;SDS011;11492;42.646;23.400;2023-08-06T10:25:00;7.47;;;4.15;;
22650;SDS011;11492;42.646;23.400;2023-08-06T10:27:33;12.55;;;8.93;;
22650;SDS011;11492;42.646;23.400;2023-08-06T10:33:00;3.42;;;1.67;;
22650;SDS011;11492;42.646;23.400;2023-08-06T10:40:36;3.97;;;1.90;;
22650;SDS011;11492;42.646;23.400;2023-08-06T10:43:02;3.28;;;1.50;;
22650;SDS011;11492;42.646;23.400;2023-08-06T10:45:33;3.25;;;1.95;;
22650;SDS011;11492;42.646;23.400;2023-08-06T10:48:00;3.40;;;1.77;;
22650;SDS011;11492;42.646;23.400;2023-08-06T10:50:26;2.63;;;1.60;;
22650;SDS011;11492;42.646;23.400;2023-08-06T10:52:51;3.17;;;2.17;;
22650;SDS011;11492;42.646;23.400;2023-08-06T10:57:54;3.75;;;1.92;;
22650;SDS011;11492;42.646;23.400;2023-08-06T11:00:21;4.85;;;2.60;;
22650;SDS011;11492;42.646;23.400;2023-08-06T11:02:53;4.07;;;2.28;;
22650;SDS011;11492;42.646;23.400;2023-08-06T11:05:20;3.38;;;2.13;;
22650;SDS011;11492;42.646;23.400;2023-08-06T11:07:45;5.45;;;2.35;;
22650;SDS011;11492;42.646;23.400;2023-08-06T11:10:13;4.60;;;1.98;;
22650;SDS011;11492;42.646;23.400;2023-08-06T11:12:39;3.53;;;2.13;;
22650;SDS011;11492;42.646;23.400;2023-08-06T11:15:05;5.05;;;2.05;;
22650;SDS011;11492;42.646;23.400;2023-08-06T11:17:32;3.55;;;1.95;;
22650;SDS011;11492;42.646;23.400;2023-08-06T11:19:59;6.43;;;2.80;;
22650;SDS011;11492;42.646;23.400;2023-08-06T11:22:25;3.65;;;2.28;;
22650;SDS011;11492;42.646;23.400;2023-08-06T11:24:52;4.90;;;2.05;;
22650;SDS011;11492;42.646;23.400;2023-08-06T11:27:18;4.20;;;2.05;;
22650;SDS011;11492;42.646;23.400;2023-08-06T11:29:43;3.83;;;2.10;;
22650;SDS011;11492;42.646;23.400;2023-08-06T11:32:09;7.15;;;2.25;;
22650;SDS011;11492;42.646;23.400;2023-08-06T11:34:35;3.38;;;1.90;;
22650;SDS011;11492;42.646;23.400;2023-08-06T11:37:05;4.30;;;1.80;;
22650;SDS011;11492;42.646;23.400;2023-08-06T11:39:34;3.78;;;1.90;;
22650;SDS011;11492;42.646;23.400;2023-08-06T11:42:04;3.00;;;1.80;;
22650;SDS011;11492;42.646;23.400;2023-08-06T11:44:31;3.75;;;2.15;;
22650;SDS011;11492;42.646;23.400;2023-08-06T11:47:01;4.47;;;2.00;;
22650;SDS011;11492;42.646;23.400;2023-08-06T11:49:43;5.10;;;1.92;;
22650;SDS011;11492;42.646;23.400;2023-08-06T11:52:17;4.25;;;2.38;;
22650;SDS011;11492;42.646;23.400;2023-08-06T11:54:46;4.28;;;2.42;;
22650;SDS011;11492;42.646;23.400;2023-08-06T11:57:13;9.32;;;2.53;;
22650;SDS011;11492;42.646;23.400;2023-08-06T11:59:40;3.78;;;2.63;;
22650;SDS011;11492;42.646;23.400;2023-08-06T12:02:07;5.80;;;2.67;;
22650;SDS011;11492;42.646;23.400;2023-08-06T12:07:42;6.70;;;2.70;;
22650;SDS011;11492;42.646;23.400;2023-08-06T12:10:09;9.48;;;2.70;;
22650;SDS011;11492;42.646;23.400;2023-08-06T12:12:35;13.00;;;2.97;;
22650;SDS011;11492;42.646;23.400;2023-08-06T12:15:02;3.17;;;2.45;;
22650;SDS011;11492;42.646;23.400;2023-08-06T12:17:28;4.70;;;2.58;;
22650;SDS011;11492;42.646;23.400;2023-08-06T12:19:53;6.10;;;2.60;;
22650;SDS011;11492;42.646;23.400;2023-08-06T12:22:19;4.57;;;2.30;;
22650;SDS011;11492;42.646;23.400;2023-08-06T12:24:45;3.80;;;2.75;;
22650;SDS011;11492;42.646;23.400;2023-08-06T12:27:12;4.13;;;2.58;;
22650;SDS011;11492;42.646;23.400;2023-08-06T12:29:41;3.55;;;2.70;;
22650;SDS011;11492;42.646;23.400;2023-08-06T12:32:11;4.25;;;3.17;;
22650;SDS011;11492;42.646;23.400;2023-08-06T12:34:37;4.93;;;3.17;;
22650;SDS011;11492;42.646;23.400;2023-08-06T12:37:04;4.38;;;2.83;;
22650;SDS011;11492;42.646;23.400;2023-08-06T12:39:30;8.35;;;2.92;;
22650;SDS011;11492;42.646;23.400;2023-08-06T12:41:56;7.88;;;3.17;;
22650;SDS011;11492;42.646;23.400;2023-08-06T12:44:23;3.88;;;3.05;;
22650;SDS011;11492;42.646;23.400;2023-08-06T12:46:49;4.45;;;3.30;;
22650;SDS011;11492;42.646;23.400;2023-08-06T12:49:15;5.50;;;3.55;;
22650;SDS011;11492;42.646;23.400;2023-08-06T12:51:41;4.10;;;3.25;;
22650;SDS011;11492;42.646;23.400;2023-08-06T12:54:06;8.98;;;3.55;;
22650;SDS011;11492;42.646;23.400;2023-08-06T12:56:31;4.70;;;3.28;;
22650;SDS011;11492;42.646;23.400;2023-08-06T12:58:57;6.80;;;3.50;;
22650;SDS011;11492;42.646;23.400;2023-08-06T13:01:22;6.85;;;3.50;;
22650;SDS011;11492;42.646;23.400;2023-08-06T13:03:48;6.70;;;3.42;;
22650;SDS011;11492;42.646;23.400;2023-08-06T13:06:13;8.77;;;3.80;;
22650;SDS011;11492;42.646;23.400;2023-08-06T13:08:38;5.80;;;3.25;;
22650;SDS011;11492;42.646;23.400;2023-08-06T13:11:04;6.57;;;3.55;;
22650;SDS011;11492;42.646;23.400;2023-08-06T13:13:30;4.45;;;3.38;;
22650;SDS011;11492;42.646;23.400;2023-08-06T13:15:55;7.30;;;3.85;;
22650;SDS011;11492;42.646;23.400;2023-08-06T13:18:21;5.47;;;3.38;;
22650;SDS011;11492;42.646;23.400;2023-08-06T13:20:46;6.32;;;3.97;;
22650;SDS011;11492;42.646;23.400;2023-08-06T13:23:14;6.53;;;4.25;;
22650;SDS011;11492;42.646;23.400;2023-08-06T13:25:41;7.80;;;4.72;;
22650;SDS011;11492;42.646;23.400;2023-08-06T13:28:07;8.65;;;3.63;;
22650;SDS011;11492;42.646;23.400;2023-08-06T13:30:32;11.73;;;4.07;;
22650;SDS011;11492;42.646;23.400;2023-08-06T13:33:00;6.45;;;3.70;;
22650;SDS011;11492;42.646;23.400;2023-08-06T13:35:26;7.20;;;3.38;;
22650;SDS011;11492;42.646;23.400;2023-08-06T13:37:51;5.35;;;3.40;;
22650;SDS011;11492;42.646;23.400;2023-08-06T13:40:18;8.63;;;3.63;;
22650;SDS011;11492;42.646;23.400;2023-08-06T13:42:43;7.53;;;4.00;;
22650;SDS011;11492;42.646;23.400;2023-08-06T13:45:09;5.63;;;3.70;;
22650;SDS011;11492;42.646;23.400;2023-08-06T13:47:34;8.05;;;3.95;;
22650;SDS011;11492;42.646;23.400;2023-08-06T13:50:00;11.70;;;4.15;;
22650;SDS011;11492;42.646;23.400;2023-08-06T13:52:26;6.65;;;3.53;;
22650;SDS011;11492;42.646;23.400;2023-08-06T13:54:52;7.65;;;3.38;;
22650;SDS011;11492;42.646;23.400;2023-08-06T13:57:17;4.82;;;3.60;;
22650;SDS011;11492;42.646;23.400;2023-08-06T13:59:43;8.13;;;3.40;;
22650;SDS011;11492;42.646;23.400;2023-08-06T14:02:09;6.03;;;3.17;;
22650;SDS011;11492;42.646;23.400;2023-08-06T14:04:34;9.73;;;3.25;;
22650;SDS011;11492;42.646;23.400;2023-08-06T14:07:00;5.15;;;3.40;;
22650;SDS011;11492;42.646;23.400;2023-08-06T14:09:25;6.00;;;3.70;;
22650;SDS011;11492;42.646;23.400;2023-08-06T14:11:51;6.47;;;3.38;;
22650;SDS011;11492;42.646;23.400;2023-08-06T14:14:16;12.70;;;3.80;;
22650;SDS011;11492;42.646;23.400;2023-08-06T14:16:42;5.68;;;3.40;;
22650;SDS011;11492;42.646;23.400;2023-08-06T14:19:07;4.90;;;3.60;;
22650;SDS011;11492;42.646;23.400;2023-08-06T14:21:33;6.85;;;3.35;;
22650;SDS011;11492;42.646;23.400;2023-08-06T14:23:58;16.85;;;3.65;;
22650;SDS011;11492;42.646;23.400;2023-08-06T14:26:23;5.18;;;3.50;;
22650;SDS011;11492;42.646;23.400;2023-08-06T14:28:49;10.52;;;3.67;;
22650;SDS011;11492;42.646;23.400;2023-08-06T14:31:19;7.00;;;3.28;;
22650;SDS011;11492;42.646;23.400;2023-08-06T14:33:44;8.02;;;3.08;;
22650;SDS011;11492;42.646;23.400;2023-08-06T14:36:10;7.03;;;4.20;;
22650;SDS011;11492;42.646;23.400;2023-08-06T14:38:35;9.90;;;4.53;;
22650;SDS011;11492;42.646;23.400;2023-08-06T14:41:01;8.15;;;3.50;;
22650;SDS011;11492;42.646;23.400;2023-08-06T14:43:26;6.13;;;3.20;;
22650;SDS011;11492;42.646;23.400;2023-08-06T14:45:52;8.05;;;3.20;;
22650;SDS011;11492;42.646;23.400;2023-08-06T14:48:17;6.32;;;3.28;;
22650;SDS011;11492;42.646;23.400;2023-08-06T14:50:43;8.30;;;2.97;;
22650;SDS011;11492;42.646;23.400;2023-08-06T14:53:09;8.02;;;3.10;;
22650;SDS011;11492;42.646;23.400;2023-08-06T14:55:36;6.18;;;3.78;;